createdAt,value
2018-06-05T00:00:57.413Z,83.45
2018-06-05T00:03:25.757Z,84.27
2018-06-05T00:05:54.029Z,83.57
2018-06-05T00:08:22.305Z,83.17
2018-06-05T00:10:50.581Z,83.19
2018-06-05T00:13:18.893Z,83.20
2018-06-05T00:15:47.173Z,82.84
2018-06-05T00:18:15.509Z,83.99
2018-06-05T00:20:43.774Z,82.49
2018-06-05T00:23:12.090Z,81.71
2018-06-05T00:25:40.373Z,80.53
2018-06-05T00:28:08.638Z,80.18
2018-06-05T00:30:37.575Z,80.10
2018-06-05T00:33:05.929Z,79.49
2018-06-05T00:35:34.305Z,78.47
2018-06-05T00:38:02.626Z,79.10
2018-06-05T00:40:30.942Z,78.99
2018-06-05T00:42:59.271Z,78.71
2018-06-05T00:45:28.587Z,78.92
2018-06-05T00:47:56.904Z,78.48
2018-06-05T00:50:25.555Z,79.37
2018-06-05T00:52:53.851Z,79.78
2018-06-05T00:55:22.161Z,79.72
2018-06-05T00:57:50.461Z,79.14
2018-06-05T01:00:18.814Z,79.47
2018-06-05T01:02:47.113Z,80.35
2018-06-05T01:05:15.436Z,80.27
2018-06-05T01:07:43.729Z,80.74
2018-06-05T01:10:12.029Z,81.55
2018-06-05T01:12:40.341Z,80.74
2018-06-05T01:15:08.620Z,80.82
2018-06-05T01:17:36.919Z,79.87
2018-06-05T01:20:05.238Z,79.74
2018-06-05T01:22:33.546Z,80.28
2018-06-05T01:25:02.868Z,80.19
2018-06-05T01:27:31.149Z,79.98
2018-06-05T01:29:59.425Z,79.80
2018-06-05T01:32:28.743Z,80.21
2018-06-05T01:34:57.048Z,80.46
2018-06-05T01:37:26.441Z,80.02
2018-06-05T01:39:54.722Z,80.40
2018-06-05T01:42:23.025Z,80.20
2018-06-05T01:44:51.313Z,81.03
2018-06-05T01:47:19.612Z,80.66
2018-06-05T01:49:47.869Z,80.10
2018-06-05T01:52:16.166Z,80.24
2018-06-05T01:54:44.414Z,79.87
2018-06-05T01:57:15.855Z,80.17
2018-06-05T01:59:44.144Z,79.73
2018-06-05T02:02:12.389Z,79.54
2018-06-05T02:04:40.700Z,79.99
2018-06-05T02:07:09.001Z,79.89
2018-06-05T02:09:37.293Z,79.58
2018-06-05T02:12:05.652Z,79.41
2018-06-05T02:14:33.929Z,79.21
2018-06-05T02:17:03.361Z,78.17
2018-06-05T02:19:31.682Z,78.34
2018-06-05T02:21:59.933Z,78.23
2018-06-05T02:24:28.256Z,78.02
2018-06-05T02:26:56.568Z,77.40
2018-06-05T02:29:24.902Z,76.97
2018-06-05T02:31:54.218Z,77.76
2018-06-05T02:34:22.472Z,77.22
2018-06-05T02:36:50.785Z,76.90
2018-06-05T02:39:19.061Z,77.02
2018-06-05T02:41:47.369Z,77.53
2018-06-05T02:44:15.698Z,77.31
2018-06-05T02:46:43.993Z,76.79
2018-06-05T02:49:12.265Z,76.61
2018-06-05T02:51:40.569Z,76.60
2018-06-05T02:54:08.860Z,76.31
2018-06-05T02:56:37.150Z,74.73
2018-06-05T02:59:05.666Z,75.50
2018-06-05T03:01:33.980Z,75.59
2018-06-05T03:04:02.303Z,75.40
2018-06-05T03:06:30.602Z,75.37
2018-06-05T03:08:58.873Z,74.74
2018-06-05T03:11:27.190Z,74.98
2018-06-05T03:13:55.486Z,74.70
2018-06-05T03:16:23.770Z,74.83
2018-06-05T03:18:52.106Z,74.10
2018-06-05T03:21:20.441Z,74.13
2018-06-05T03:23:49.805Z,74.15
2018-06-05T03:26:18.105Z,74.21
2018-06-05T03:28:46.416Z,74.05
2018-06-05T03:31:14.694Z,73.96
2018-06-05T03:33:44.122Z,74.28
2018-06-05T03:36:12.481Z,73.55
2018-06-05T03:38:40.854Z,72.89
2018-06-05T03:41:09.153Z,72.29
2018-06-05T03:43:37.465Z,72.19
2018-06-05T03:46:05.773Z,72.17
2018-06-05T03:48:34.061Z,71.43
2018-06-05T03:51:02.400Z,70.63
2018-06-05T03:53:30.685Z,70.67
2018-06-05T03:55:58.996Z,72.26
2018-06-05T03:58:27.269Z,71.90
2018-06-05T04:00:55.565Z,71.89
2018-06-05T04:03:23.833Z,72.31
2018-06-05T04:05:52.113Z,71.89
2018-06-05T04:08:20.392Z,70.89
2018-06-05T04:10:48.712Z,69.85
2018-06-05T04:13:16.993Z,69.38
2018-06-05T04:15:45.308Z,68.99
2018-06-05T04:18:13.582Z,68.87
2018-06-05T04:20:42.880Z,68.53
2018-06-05T04:23:11.176Z,68.50
2018-06-05T04:25:39.601Z,69.02
2018-06-05T04:28:07.926Z,69.52
2018-06-05T04:30:36.217Z,68.87
2018-06-05T04:33:04.493Z,68.58
2018-06-05T04:35:32.765Z,68.33
2018-06-05T04:38:01.033Z,67.79
2018-06-05T04:40:29.335Z,67.31
2018-06-05T04:42:57.601Z,67.14
2018-06-05T04:45:26.899Z,67.04
2018-06-05T04:47:55.157Z,67.04
2018-06-05T04:50:23.432Z,67.02
2018-06-05T04:52:51.721Z,66.52
2018-06-05T04:55:22.104Z,65.46
2018-06-05T04:57:50.398Z,65.81
2018-06-05T05:00:18.671Z,64.32
2018-06-05T05:02:46.949Z,64.23
2018-06-05T05:05:16.226Z,64.53
2018-06-05T05:07:44.549Z,65.26
2018-06-05T05:10:12.829Z,65.65
2018-06-05T05:12:42.209Z,65.19
2018-06-05T05:15:10.461Z,64.53
2018-06-05T05:17:38.759Z,63.66
2018-06-05T05:20:07.343Z,63.58
2018-06-05T05:22:35.618Z,63.54
2018-06-05T05:25:03.948Z,63.56
2018-06-05T05:27:32.279Z,62.77
2018-06-05T05:30:00.541Z,62.38
2018-06-05T05:32:28.848Z,61.85
2018-06-05T05:34:57.173Z,61.63
2018-06-05T05:37:25.462Z,61.70
2018-06-05T05:39:53.777Z,62.32
2018-06-05T05:42:22.081Z,61.43
2018-06-05T05:44:50.417Z,62.33
2018-06-05T05:47:18.674Z,62.13
2018-06-05T05:49:46.996Z,60.79
2018-06-05T05:52:15.265Z,58.92
2018-06-05T05:54:43.575Z,58.97
2018-06-05T05:57:11.846Z,59.76
2018-06-05T05:59:41.209Z,59.16
2018-06-05T06:02:09.525Z,58.83
2018-06-05T06:04:37.863Z,57.14
2018-06-05T06:07:07.237Z,57.49
2018-06-05T06:09:36.568Z,57.93
2018-06-05T06:12:05.970Z,58.13
2018-06-05T06:14:34.244Z,55.11
2018-06-05T06:17:02.501Z,54.99
2018-06-05T06:19:30.803Z,53.77
2018-06-05T06:21:59.089Z,53.15
2018-06-05T06:24:27.424Z,53.07
2018-06-05T06:26:55.743Z,56.00
2018-06-05T06:29:23.993Z,56.80
2018-06-05T06:31:52.321Z,55.72
2018-06-05T06:34:20.593Z,56.09
2018-06-05T06:36:48.921Z,57.10
2018-06-05T06:39:17.249Z,56.33
2018-06-05T06:41:45.597Z,56.00
2018-06-05T06:44:15.983Z,57.73
2018-06-05T06:46:46.325Z,57.02
2018-06-05T06:49:14.672Z,58.85
2018-06-05T06:51:42.976Z,58.41
2018-06-05T06:54:13.761Z,56.75
2018-06-05T06:56:43.978Z,58.52
2018-06-05T06:59:12.255Z,58.16
2018-06-05T07:01:40.619Z,56.61
2018-06-05T07:04:08.957Z,55.79
2018-06-05T07:06:37.347Z,55.32
2018-06-05T07:09:08.329Z,53.48
2018-06-05T07:11:36.999Z,54.85
2018-06-05T07:14:05.352Z,55.20
2018-06-05T07:16:33.659Z,54.67
2018-06-05T07:19:01.981Z,53.31
2018-06-05T07:21:30.307Z,52.94
2018-06-05T07:23:59.721Z,53.56
2018-06-05T07:26:27.962Z,55.70
2018-06-05T07:28:57.366Z,55.71
2018-06-05T07:31:25.670Z,53.67
2018-06-05T07:33:53.982Z,54.71
2018-06-05T07:36:22.285Z,53.40
2018-06-05T07:38:50.616Z,53.73
2018-06-05T07:41:19.020Z,53.00
2018-06-05T07:43:47.379Z,53.49
2018-06-05T07:46:15.649Z,53.38
2018-06-05T07:48:43.925Z,52.59
2018-06-05T07:51:13.257Z,51.90
2018-06-05T07:53:41.566Z,51.15
2018-06-05T07:56:09.885Z,50.85
2018-06-05T07:58:41.853Z,50.52
2018-06-05T08:01:10.189Z,50.22
2018-06-05T08:03:38.509Z,49.11
2018-06-05T08:06:08.937Z,49.05
2018-06-05T08:08:37.232Z,49.50
2018-06-05T08:11:05.596Z,48.14
2018-06-05T08:13:33.973Z,47.19
2018-06-05T08:16:02.289Z,48.35
2018-06-05T08:18:30.607Z,47.95
2018-06-05T08:20:58.957Z,48.97
2018-06-05T08:23:27.257Z,46.95
2018-06-05T08:25:55.525Z,46.96
2018-06-05T08:28:23.893Z,46.88
2018-06-05T08:30:52.169Z,46.43
2018-06-05T08:33:20.489Z,46.97
2018-06-05T08:35:49.771Z,47.30
2018-06-05T08:38:22.043Z,46.71
2018-06-05T08:40:50.336Z,45.56
2018-06-05T08:43:18.733Z,45.23
2018-06-05T08:45:47.036Z,45.50
2018-06-05T08:48:15.366Z,45.98
2018-06-05T08:50:43.673Z,44.47
2018-06-05T08:53:11.993Z,45.30
2018-06-05T08:55:40.285Z,46.29
2018-06-05T08:58:08.598Z,45.44
2018-06-05T09:00:36.926Z,45.12
2018-06-05T09:03:06.303Z,46.20
2018-06-05T09:05:34.561Z,47.74
2018-06-05T09:08:02.873Z,47.79
2018-06-05T09:10:31.153Z,47.62
2018-06-05T09:13:01.517Z,48.14
2018-06-05T09:15:29.857Z,47.56
2018-06-05T09:17:58.159Z,47.69
2018-06-05T09:20:26.765Z,47.83
2018-06-05T09:22:55.037Z,47.86
2018-06-05T09:25:23.384Z,48.22
2018-06-05T09:27:51.672Z,48.06
2018-06-05T09:30:20.509Z,47.45
2018-06-05T09:32:48.813Z,48.08
2018-06-05T09:35:17.237Z,47.95
2018-06-05T09:37:46.538Z,48.81
2018-06-05T09:40:14.856Z,47.14
2018-06-05T09:42:43.117Z,47.55
2018-06-05T09:45:19.460Z,46.99
2018-06-05T09:47:47.763Z,47.93
2018-06-05T09:50:16.031Z,46.67
2018-06-05T09:52:44.385Z,47.43
2018-06-05T09:55:18.427Z,47.48
2018-06-05T09:57:46.876Z,47.09
2018-06-05T10:00:15.059Z,45.74
2018-06-05T10:02:43.458Z,44.99
2018-06-05T10:05:13.657Z,45.32
2018-06-05T10:07:42.145Z,46.15
2018-06-05T10:10:10.709Z,45.93
2018-06-05T10:12:39.085Z,46.66
2018-06-05T10:15:07.494Z,46.62
2018-06-05T10:17:35.950Z,48.00
2018-06-05T10:20:04.514Z,46.15
2018-06-05T10:22:33.050Z,46.35
2018-06-05T10:25:01.718Z,46.15
2018-06-05T10:27:30.528Z,45.76
2018-06-05T10:29:58.945Z,46.19
2018-06-05T10:32:27.325Z,45.43
2018-06-05T10:34:55.680Z,45.07
2018-06-05T10:37:23.937Z,44.94
2018-06-05T10:39:52.365Z,45.27
2018-06-05T10:42:20.761Z,44.63
2018-06-05T10:44:49.713Z,44.84
2018-06-05T10:47:18.007Z,44.43
2018-06-05T10:49:46.429Z,44.25
2018-06-05T10:52:14.718Z,45.11
2018-06-05T10:54:43.077Z,46.57
2018-06-05T10:57:11.430Z,45.63
2018-06-05T10:59:39.822Z,46.58
2018-06-05T11:02:08.129Z,46.48
2018-06-05T11:04:36.497Z,47.14
2018-06-05T11:07:04.799Z,46.51
2018-06-05T11:09:33.197Z,46.46
2018-06-05T11:12:02.713Z,47.60
2018-06-05T11:14:31.132Z,47.18
2018-06-05T11:16:59.482Z,47.55
2018-06-05T11:19:27.920Z,47.35
2018-06-05T11:21:56.263Z,49.27
2018-06-05T11:24:24.533Z,48.19
2018-06-05T11:26:52.934Z,46.01
2018-06-05T11:29:21.201Z,47.09
2018-06-05T11:31:49.517Z,48.27
2018-06-05T11:34:18.820Z,48.30
2018-06-05T11:36:47.409Z,48.24
2018-06-05T11:39:15.729Z,48.89
2018-06-05T11:41:43.993Z,47.42
2018-06-05T11:44:12.387Z,47.29
2018-06-05T11:46:40.691Z,49.64
2018-06-05T11:49:10.077Z,50.20
2018-06-05T11:51:38.377Z,50.33
2018-06-05T11:54:06.840Z,50.08
2018-06-05T11:56:35.204Z,49.14
2018-06-05T11:59:03.580Z,50.07
2018-06-05T12:01:31.837Z,49.55
2018-06-05T12:04:01.261Z,50.01
2018-06-05T12:06:29.609Z,50.07
2018-06-05T12:08:57.993Z,48.27
2018-06-05T12:11:26.349Z,48.17
2018-06-05T12:13:55.817Z,48.18
2018-06-05T12:16:24.157Z,48.61
2018-06-05T12:18:52.641Z,47.99
2018-06-05T12:21:22.950Z,50.65
2018-06-05T12:23:51.382Z,49.88
2018-06-05T12:26:20.748Z,50.36
2018-06-05T12:28:49.021Z,51.64
2018-06-05T12:31:17.426Z,51.42
2018-06-05T12:33:45.762Z,51.81
2018-06-05T12:36:14.198Z,52.04
2018-06-05T12:38:43.669Z,53.75
2018-06-05T12:41:12.017Z,53.17
2018-06-05T12:43:40.404Z,51.82
2018-06-05T12:46:08.803Z,50.76
2018-06-05T12:48:37.133Z,49.78
2018-06-05T12:51:10.196Z,50.59
2018-06-05T12:53:38.582Z,51.06
2018-06-05T12:56:06.922Z,50.43
2018-06-05T12:58:35.243Z,49.50
2018-06-05T13:01:05.781Z,49.19
2018-06-05T13:03:34.041Z,48.86
2018-06-05T13:06:03.405Z,48.29
2018-06-05T13:08:31.668Z,48.36
2018-06-05T13:10:59.966Z,48.83
2018-06-05T13:13:28.365Z,47.96
2018-06-05T13:15:56.700Z,49.06
2018-06-05T13:18:25.093Z,47.71
2018-06-05T13:20:53.426Z,46.20
2018-06-05T13:23:21.827Z,47.41
2018-06-05T13:25:50.177Z,47.17
2018-06-05T13:28:19.490Z,45.91
2018-06-05T13:30:47.882Z,47.06
2018-06-05T13:33:16.185Z,46.31
2018-06-05T13:35:44.513Z,45.87
2018-06-05T13:38:12.921Z,43.73
2018-06-05T13:40:41.267Z,42.48
2018-06-05T13:43:09.673Z,38.13
2018-06-05T13:45:38.031Z,35.05
2018-06-05T13:48:06.474Z,31.59
2018-06-05T13:50:34.813Z,30.93
2018-06-05T13:53:03.233Z,30.99
2018-06-05T13:55:32.599Z,30.75
2018-06-05T13:58:01.984Z,28.03
2018-06-05T14:00:30.310Z,25.94
2018-06-05T14:02:59.658Z,25.17
2018-06-05T14:05:28.089Z,22.86
2018-06-05T14:07:56.420Z,22.33
2018-06-05T14:10:24.897Z,22.52
2018-06-05T14:12:54.289Z,21.73
2018-06-05T14:15:23.617Z,20.25
2018-06-05T14:17:51.968Z,19.82
2018-06-05T14:20:20.367Z,17.77
2018-06-05T14:22:49.124Z,18.83
2018-06-05T14:25:17.457Z,17.16
2018-06-05T14:27:45.793Z,15.81
2018-06-05T14:30:14.176Z,16.88
2018-06-05T14:32:42.506Z,15.28
2018-06-05T14:35:11.932Z,14.25
2018-06-05T14:37:40.268Z,12.92
2018-06-05T14:40:08.702Z,12.20
2018-06-05T14:42:37.049Z,10.88
2018-06-05T14:45:05.424Z,11.61
2018-06-05T14:47:34.519Z,11.64
2018-06-05T14:50:02.785Z,11.19
2018-06-05T14:52:32.062Z,10.91
2018-06-05T14:55:01.369Z,10.30
2018-06-05T14:57:29.738Z,9.99
2018-06-05T14:59:58.025Z,11.79
2018-06-05T15:02:26.376Z,9.41
2018-06-05T15:04:54.653Z,10.52
2018-06-05T15:07:22.953Z,10.05
2018-06-05T15:09:51.250Z,10.91
2018-06-05T15:12:19.586Z,10.35
2018-06-05T15:14:47.873Z,9.70
2018-06-05T15:17:17.191Z,9.59
2018-06-05T15:19:45.473Z,9.54
2018-06-05T15:22:13.787Z,9.59
2018-06-05T15:24:42.259Z,10.14
2018-06-05T15:27:10.549Z,11.29
2018-06-05T15:29:38.867Z,12.77
2018-06-05T15:32:06.890Z,10.01
2018-06-05T15:34:35.233Z,10.65
2018-06-05T15:37:03.517Z,10.21
2018-06-05T15:39:32.121Z,9.08
2018-06-05T15:42:00.420Z,10.56
2018-06-05T15:44:28.733Z,11.16
2018-06-05T15:46:57.090Z,11.34
2018-06-05T15:49:25.405Z,11.44
2018-06-05T15:51:58.884Z,9.54
2018-06-05T15:54:27.210Z,9.20
2018-06-05T15:56:55.530Z,9.65
2018-06-05T15:59:23.901Z,8.29
2018-06-05T16:01:52.252Z,10.46
2018-06-05T16:04:20.537Z,9.95
2018-06-05T16:06:48.893Z,9.64
2018-06-05T16:09:17.199Z,9.15
2018-06-05T16:11:45.509Z,10.76
2018-06-05T16:14:13.814Z,10.11
2018-06-05T16:16:42.138Z,10.67
2018-06-05T16:19:10.531Z,11.76
2018-06-05T16:21:38.835Z,11.59
2018-06-05T16:24:09.204Z,11.94
2018-06-05T16:26:37.495Z,12.11
2018-06-05T16:29:05.859Z,13.49
2018-06-05T16:31:34.152Z,12.16
2018-06-05T16:34:02.430Z,12.98
2018-06-05T16:36:30.754Z,13.76
2018-06-05T16:38:59.069Z,12.43
2018-06-05T16:41:27.381Z,13.63
2018-06-05T16:43:55.733Z,13.43
2018-06-05T16:46:24.133Z,14.59
2018-06-05T16:48:52.415Z,11.73
2018-06-05T16:51:20.745Z,13.03
2018-06-05T16:53:50.057Z,15.32
2018-06-05T16:56:18.365Z,18.48
2018-06-05T16:58:46.653Z,17.74
2018-06-05T17:01:14.962Z,17.22
2018-06-05T17:03:43.294Z,16.29
2018-06-05T17:06:11.581Z,16.73
2018-06-05T17:08:39.942Z,18.29
2018-06-05T17:11:08.236Z,20.57
2018-06-05T17:13:36.593Z,21.16
2018-06-05T17:16:04.940Z,21.08
2018-06-05T17:18:33.251Z,18.99
2018-06-05T17:21:01.615Z,19.08
2018-06-05T17:23:31.060Z,20.91
2018-06-05T17:25:59.342Z,21.66
2018-06-05T17:28:28.768Z,19.72
2018-06-05T17:30:57.084Z,21.50
2018-06-05T17:33:25.366Z,20.47
2018-06-05T17:35:53.703Z,20.13
2018-06-05T17:38:21.998Z,24.29
2018-06-05T17:40:50.341Z,32.26
2018-06-05T17:43:18.629Z,39.23
2018-06-05T17:45:46.944Z,44.06
2018-06-05T17:48:15.228Z,45.42
2018-06-05T17:50:43.536Z,48.58
2018-06-05T17:53:12.853Z,49.30
2018-06-05T17:55:41.165Z,50.15
2018-06-05T17:58:13.417Z,50.43
2018-06-05T18:00:41.713Z,49.69
2018-06-05T18:03:10.060Z,50.00
2018-06-05T18:05:40.439Z,49.96
2018-06-05T18:08:09.841Z,50.66
2018-06-05T18:10:38.794Z,51.70
2018-06-05T18:13:07.113Z,52.90
2018-06-05T18:15:35.409Z,52.05
2018-06-05T18:18:03.729Z,52.07
2018-06-05T18:20:32.033Z,51.43
2018-06-05T18:23:00.343Z,51.29
2018-06-05T18:25:28.685Z,50.96
2018-06-05T18:27:57.070Z,50.79
2018-06-05T18:30:25.357Z,51.11
2018-06-05T18:32:53.650Z,51.23
2018-06-05T18:35:22.978Z,50.59
2018-06-05T18:37:51.289Z,51.14
2018-06-05T18:40:19.589Z,50.84
2018-06-05T18:42:47.871Z,50.47
2018-06-05T18:45:17.197Z,50.24
2018-06-05T18:47:45.594Z,50.28
2018-06-05T18:50:13.961Z,49.17
2018-06-05T18:52:42.410Z,48.31
2018-06-05T18:55:10.655Z,47.50
2018-06-05T18:57:38.981Z,46.88
2018-06-05T19:00:07.321Z,46.18
2018-06-05T19:02:35.740Z,46.47
2018-06-05T19:05:04.115Z,46.28
2018-06-05T19:07:32.397Z,44.84
2018-06-05T19:10:00.729Z,45.64
2018-06-05T19:12:29.125Z,44.59
2018-06-05T19:15:02.989Z,44.61
2018-06-05T19:17:31.258Z,44.15
2018-06-05T19:19:59.617Z,44.97
2018-06-05T19:22:28.014Z,45.12
2018-06-05T19:24:56.293Z,44.61
2018-06-05T19:27:24.553Z,44.88
2018-06-05T19:29:52.897Z,44.93
2018-06-05T19:32:21.125Z,44.86
2018-06-05T19:34:49.455Z,44.84
2018-06-05T19:37:17.730Z,45.35
2018-06-05T19:39:46.008Z,45.22
2018-06-05T19:42:14.262Z,46.59
2018-06-05T19:44:42.557Z,46.32
2018-06-05T19:47:11.877Z,46.88
2018-06-05T19:50:43.643Z,46.82
2018-06-05T19:53:11.920Z,47.29
2018-06-05T19:55:40.213Z,47.79
2018-06-05T19:58:08.481Z,48.79
2018-06-05T20:00:36.788Z,48.36
2018-06-05T20:03:07.052Z,48.84
2018-06-05T20:05:35.481Z,48.73
2018-06-05T20:08:03.665Z,50.08
2018-06-05T20:10:31.961Z,51.01
2018-06-05T20:13:00.321Z,50.94
2018-06-05T20:15:28.599Z,49.97
2018-06-05T20:17:56.959Z,50.14
2018-06-05T20:20:26.325Z,50.92
2018-06-05T20:22:54.625Z,52.78
2018-06-05T20:25:22.970Z,52.52
2018-06-05T20:27:51.241Z,51.95
2018-06-05T20:30:19.529Z,51.31
2018-06-05T20:32:47.849Z,51.95
2018-06-05T20:35:17.320Z,51.41
2018-06-05T20:37:45.649Z,51.43
2018-06-05T20:40:16.342Z,51.16
2018-06-05T20:42:44.863Z,51.33
2018-06-05T20:45:19.600Z,51.98
2018-06-05T20:47:48.997Z,52.59
2018-06-05T20:50:17.277Z,50.13
2018-06-05T20:52:49.085Z,49.43
2018-06-05T20:55:19.410Z,47.61
2018-06-05T20:57:49.784Z,47.11
2018-06-05T21:00:21.751Z,47.54
2018-06-05T21:02:50.099Z,47.75
2018-06-05T21:05:20.425Z,46.20
2018-06-05T21:07:48.765Z,46.55
2018-06-05T21:10:19.121Z,47.31
2018-06-05T21:12:47.477Z,45.52
2018-06-05T21:15:15.869Z,45.31
2018-06-05T21:17:44.518Z,45.11
2018-06-05T21:20:16.410Z,44.83
2018-06-05T21:22:44.779Z,44.75
2018-06-05T21:25:13.451Z,44.64
2018-06-05T21:27:42.789Z,43.88
2018-06-05T21:30:11.188Z,44.48
2018-06-05T21:32:39.477Z,45.11
2018-06-05T21:35:07.803Z,44.40
2018-06-05T21:37:37.085Z,44.49
2018-06-05T21:40:06.242Z,46.21
2018-06-05T21:42:34.572Z,45.27
2018-06-05T21:45:02.962Z,46.37
2018-06-05T21:47:31.341Z,45.62
2018-06-05T21:50:03.353Z,47.26
2018-06-05T21:52:31.809Z,46.74
2018-06-05T21:55:00.142Z,47.99
2018-06-05T21:57:28.577Z,47.70
2018-06-05T21:59:56.898Z,48.45
2018-06-05T22:02:25.300Z,47.96
2018-06-05T22:04:53.658Z,47.69
2018-06-05T22:07:21.974Z,47.37
2018-06-05T22:09:50.255Z,48.35
2018-06-05T22:12:18.649Z,48.61
2018-06-05T22:14:46.945Z,47.73
2018-06-05T22:17:15.246Z,48.21
2018-06-05T22:19:43.585Z,48.34
2018-06-05T22:22:12.945Z,48.48
2018-06-05T22:24:41.236Z,48.40
2018-06-05T22:27:09.500Z,48.65
2018-06-05T22:29:37.789Z,49.01
2018-06-05T22:32:06.070Z,48.43
2018-06-05T22:34:34.431Z,50.69
2018-06-05T22:37:02.702Z,48.14
2018-06-05T22:39:31.001Z,50.32
2018-06-05T22:41:59.317Z,49.55
2018-06-05T22:44:27.610Z,50.14
2018-06-05T22:46:55.977Z,48.20
2018-06-05T22:49:25.331Z,49.16
2018-06-05T22:51:53.633Z,49.31
2018-06-05T22:54:25.387Z,51.91
2018-06-05T22:56:53.648Z,51.74
2018-06-05T22:59:21.925Z,49.54
2018-06-05T23:01:50.228Z,50.86
2018-06-05T23:04:18.517Z,51.72
2018-06-05T23:06:47.449Z,52.17
2018-06-05T23:09:15.730Z,51.16
2018-06-05T23:11:44.099Z,51.27
2018-06-05T23:14:12.396Z,50.93
2018-06-05T23:16:40.698Z,52.31
2018-06-05T23:19:08.954Z,53.04
2018-06-05T23:21:37.252Z,49.83
2018-06-05T23:24:05.553Z,51.88
2018-06-05T23:26:33.832Z,52.94
2018-06-05T23:29:02.105Z,51.81
2018-06-05T23:31:30.429Z,51.66
2018-06-05T23:33:58.789Z,52.09
2018-06-05T23:36:27.091Z,52.34
2018-06-05T23:38:55.353Z,54.21
2018-06-05T23:41:23.638Z,54.61
2018-06-05T23:43:52.008Z,54.66
2018-06-05T23:46:20.272Z,54.57
2018-06-05T23:48:48.582Z,54.81
2018-06-05T23:51:17.843Z,54.14
2018-06-05T23:53:46.146Z,56.09
2018-06-05T23:56:15.497Z,56.17
2018-06-05T23:58:43.783Z,56.09
